JST715 YMML-YMML
Flight info
| Callsign | JST715 |
|---|---|
| Flight time | 0h 8m |
| Altitude | 31000 |
| Route | DOSEL2/34 DOSEL Y59 ARRAN J42 CB |
| Aircraft | A321/M-SDE3FGHIRWY/LB1 |
Departure
| Time | 2026-05-04 05:20 |
|---|---|
| Airport | Melbourne Airport (YMML) |
Arrival
| Time | 2026-05-04 05:28 |
|---|---|
| Airport | Melbourne Airport (YMML) |
| Time | Latitude | Longitude | Altitude | Speed | Heading |
|---|---|---|---|---|---|
| 2026-05-04 05:17 | -37.33142 | 145.10269 | 11008 ft | 346 kts | 49° |
| 2026-05-04 05:17 | -37.31899 | 145.12802 | 10873 ft | 339 kts | 63° |
| 2026-05-04 05:17 | -37.31428 | 145.15680 | 10748 ft | 337 kts | 86° |
| 2026-05-04 05:18 | -37.31854 | 145.18549 | 10475 ft | 337 kts | 111° |
| 2026-05-04 05:18 | -37.33119 | 145.20997 | 10137 ft | 335 kts | 136° |
| 2026-05-04 05:18 | -37.34985 | 145.22603 | 9802 ft | 327 kts | 162° |
| 2026-05-04 05:18 | -37.37161 | 145.23158 | 9432 ft | 315 kts | 186° |
| 2026-05-04 05:19 | -37.39325 | 145.22981 | 9066 ft | 310 kts | 191° |
| 2026-05-04 05:19 | -37.41463 | 145.22703 | 8695 ft | 308 kts | 192° |
| 2026-05-04 05:19 | -37.43592 | 145.22414 | 8334 ft | 306 kts | 192° |
| 2026-05-04 05:19 | -37.45702 | 145.22119 | 7973 ft | 305 kts | 192° |
| 2026-05-04 05:20 | -37.47802 | 145.21821 | 7614 ft | 303 kts | 192° |
| 2026-05-04 05:20 | -37.49894 | 145.21528 | 7268 ft | 302 kts | 192° |
| 2026-05-04 05:20 | -37.51980 | 145.21216 | 6917 ft | 301 kts | 195° |
| 2026-05-04 05:20 | -37.53930 | 145.20414 | 6565 ft | 292 kts | 210° |
| 2026-05-04 05:21 | -37.55767 | 145.19363 | 6219 ft | 289 kts | 211° |
| 2026-05-04 05:21 | -37.57583 | 145.18286 | 5853 ft | 288 kts | 212° |
| 2026-05-04 05:21 | -37.59383 | 145.17198 | 5487 ft | 287 kts | 212° |
| 2026-05-04 05:21 | -37.61174 | 145.16099 | 5121 ft | 286 kts | 212° |
| 2026-05-04 05:22 | -37.62963 | 145.14991 | 4791 ft | 285 kts | 212° |
| 2026-05-04 05:22 | -37.64744 | 145.13883 | 4371 ft | 285 kts | 212° |
| 2026-05-04 05:22 | -37.66518 | 145.12784 | 3997 ft | 284 kts | 212° |
| 2026-05-04 05:22 | -37.68291 | 145.11674 | 3602 ft | 285 kts | 212° |
| 2026-05-04 05:23 | -37.70074 | 145.10603 | 3356 ft | 281 kts | 208° |
| 2026-05-04 05:23 | -37.71805 | 145.09572 | 3224 ft | 267 kts | 220° |
| 2026-05-04 05:23 | -37.73029 | 145.07999 | 3089 ft | 239 kts | 251° |
| 2026-05-04 05:23 | -37.73396 | 145.06091 | 2826 ft | 215 kts | 281° |
| 2026-05-04 05:24 | -37.73062 | 145.04315 | 2544 ft | 205 kts | 295° |
| 2026-05-04 05:24 | -37.72789 | 145.02500 | 2507 ft | 218 kts | 278° |
| 2026-05-04 05:24 | -37.72821 | 145.00564 | 2517 ft | 220 kts | 277° |
| 2026-05-04 05:24 | -37.72872 | 144.98638 | 2507 ft | 220 kts | 276° |
| 2026-05-04 05:25 | -37.72930 | 144.96752 | 2521 ft | 210 kts | 276° |
| 2026-05-04 05:25 | -37.72988 | 144.94961 | 2470 ft | 205 kts | 275° |
| 2026-05-04 05:25 | -37.73081 | 144.93230 | 2453 ft | 188 kts | 275° |
| 2026-05-04 05:25 | -37.73172 | 144.91694 | 2416 ft | 165 kts | 275° |
| 2026-05-04 05:26 | -37.73247 | 144.90295 | 2238 ft | 154 kts | 278° |
| 2026-05-04 05:26 | -37.73266 | 144.88961 | 2115 ft | 151 kts | 280° |
| 2026-05-04 05:26 | -37.73262 | 144.87647 | 1854 ft | 148 kts | 281° |
| 2026-05-04 05:26 | -37.73233 | 144.86352 | 1672 ft | 145 kts | 287° |
| 2026-05-04 05:27 | -37.72919 | 144.85240 | 1532 ft | 131 kts | 311° |
| 2026-05-04 05:28 | -37.67167 | 144.83837 | 381 ft | 30 kts | 351° |
| 2026-05-04 05:29 | -37.67001 | 144.83843 | 386 ft | 22 kts | 13° |
| 2026-05-04 05:29 | -37.66878 | 144.83895 | 390 ft | 16 kts | 22° |
| 2026-05-04 05:29 | -37.66785 | 144.83941 | 393 ft | 13 kts | 23° |
| 2026-05-04 05:29 | -37.66728 | 144.84012 | 395 ft | 12 kts | 65° |
| 2026-05-04 05:31 | -37.67212 | 144.84531 | 385 ft | 12 kts | 88° |
| 2026-05-04 05:31 | -37.67180 | 144.84595 | 387 ft | 8 kts | 4° |
| 2026-05-04 05:32 | -37.67148 | 144.84589 | 388 ft | 4 kts | 351° |
| 2026-05-04 05:32 | -37.67143 | 144.84588 | 388 ft | 1 kts | 351° |
| 2026-05-04 05:32 | -37.67138 | 144.84587 | 388 ft | 0 kts | 351° |
| 2026-05-04 05:33 | -37.67128 | 144.84585 | 388 ft | 0 kts | 351° |